ADDS METAR Data

Data at: 0506 UTC 20 Apr 2018

METAR for:KMTP (Montauk Arpt, NY, US)
Text:KMTP 200454Z AUTO 30012G22KT 05/M02 A2993 RMK AO1 SLP136 T00501017 400830050
Temperature: 5.0°C ( 41°F)
Dewpoint: -1.7°C ( 29°F) [RH = 62%]
Pressure (altimeter):29.93 inches Hg (1013.6 mb) [Sea level pressure: 1013.6 mb]
Winds:from the WNW (300 degrees) at 14 MPH (12 knots; 6.2 m/s) gusting to 25 MPH (22 knots; 11.3 m/s)
QC Flag:automated observation with no human augmentation